sensor_id;sensor_type;location;lat;lon;timestamp;pressure;altitude;pressure_sealevel;temperature;humidity
46944;BME280;32678;43.852;25.952;2023-02-19T00:01:06;101065.16;;;12.46;53.25
46944;BME280;32678;43.852;25.952;2023-02-19T00:06:04;101052.44;;;12.58;53.02
46944;BME280;32678;43.852;25.952;2023-02-19T00:11:03;101045.91;;;12.69;53.08
46944;BME280;32678;43.852;25.952;2023-02-19T00:16:06;101046.31;;;12.81;52.48
46944;BME280;32678;43.852;25.952;2023-02-19T00:21:04;101032.69;;;12.93;52.39
46944;BME280;32678;43.852;25.952;2023-02-19T00:26:05;101039.72;;;12.93;51.94
46944;BME280;32678;43.852;25.952;2023-02-19T00:31:16;101043.50;;;13.09;50.63
46944;BME280;32678;43.852;25.952;2023-02-19T00:36:14;101040.00;;;13.09;50.12
46944;BME280;32678;43.852;25.952;2023-02-19T00:41:11;101011.59;;;12.95;49.93
46944;BME280;32678;43.852;25.952;2023-02-19T00:46:15;101030.09;;;13.15;49.78
46944;BME280;32678;43.852;25.952;2023-02-19T00:51:12;101023.47;;;13.28;49.49
46944;BME280;32678;43.852;25.952;2023-02-19T00:56:10;101017.56;;;13.22;49.69
46944;BME280;32678;43.852;25.952;2023-02-19T01:01:12;100998.75;;;13.09;49.63
46944;BME280;32678;43.852;25.952;2023-02-19T01:06:09;101010.72;;;13.18;49.96
46944;BME280;32678;43.852;25.952;2023-02-19T01:11:07;101020.94;;;13.02;50.23
46944;BME280;32678;43.852;25.952;2023-02-19T01:16:04;101024.25;;;13.07;49.97
46944;BME280;32678;43.852;25.952;2023-02-19T01:21:04;101028.34;;;12.92;50.17
46944;BME280;32678;43.852;25.952;2023-02-19T01:26:03;101034.06;;;12.57;51.14
46944;BME280;32678;43.852;25.952;2023-02-19T01:31:00;101028.25;;;12.24;51.86
46944;BME280;32678;43.852;25.952;2023-02-19T01:35:57;101022.09;;;12.25;51.88
46944;BME280;32678;43.852;25.952;2023-02-19T01:40:55;101021.19;;;12.26;51.67
46944;BME280;32678;43.852;25.952;2023-02-19T01:45:52;101011.03;;;12.15;51.61
46944;BME280;32678;43.852;25.952;2023-02-19T01:50:50;101018.59;;;12.25;51.47
46944;BME280;32678;43.852;25.952;2023-02-19T01:55:49;101018.25;;;12.34;51.11
46944;BME280;32678;43.852;25.952;2023-02-19T02:00:48;101034.75;;;12.14;51.71
46944;BME280;32678;43.852;25.952;2023-02-19T02:05:49;101033.19;;;12.08;51.96
46944;BME280;32678;43.852;25.952;2023-02-19T02:10:48;101033.94;;;11.87;52.49
46944;BME280;32678;43.852;25.952;2023-02-19T02:15:48;101039.88;;;11.66;53.11
46944;BME280;32678;43.852;25.952;2023-02-19T02:20:54;101023.09;;;11.70;52.42
46944;BME280;32678;43.852;25.952;2023-02-19T02:26:04;101037.00;;;12.00;51.65
46944;BME280;32678;43.852;25.952;2023-02-19T02:31:05;101037.47;;;11.86;51.80
46944;BME280;32678;43.852;25.952;2023-02-19T02:36:05;101058.28;;;11.64;52.50
46944;BME280;32678;43.852;25.952;2023-02-19T02:41:04;101059.56;;;11.53;52.99
46944;BME280;32678;43.852;25.952;2023-02-19T02:46:01;101072.16;;;11.68;52.38
46944;BME280;32678;43.852;25.952;2023-02-19T02:51:05;101076.59;;;11.67;52.03
46944;BME280;32678;43.852;25.952;2023-02-19T02:56:10;101074.22;;;11.58;52.54
46944;BME280;32678;43.852;25.952;2023-02-19T03:01:08;101087.28;;;11.61;52.32
46944;BME280;32678;43.852;25.952;2023-02-19T03:06:25;101081.03;;;11.65;51.80
46944;BME280;32678;43.852;25.952;2023-02-19T03:11:24;101084.13;;;11.50;52.30
46944;BME280;32678;43.852;25.952;2023-02-19T03:16:40;101089.34;;;11.52;52.09
46944;BME280;32678;43.852;25.952;2023-02-19T03:21:58;101102.31;;;11.56;52.03
46944;BME280;32678;43.852;25.952;2023-02-19T03:26:57;101110.28;;;11.53;51.99
46944;BME280;32678;43.852;25.952;2023-02-19T03:31:59;101105.78;;;11.29;52.79
46944;BME280;32678;43.852;25.952;2023-02-19T03:37:01;101102.09;;;11.36;52.63
46944;BME280;32678;43.852;25.952;2023-02-19T03:42:03;101112.81;;;11.28;52.95
46944;BME280;32678;43.852;25.952;2023-02-19T03:47:04;101107.28;;;11.38;52.82
46944;BME280;32678;43.852;25.952;2023-02-19T03:52:07;101102.72;;;11.15;53.33
46944;BME280;32678;43.852;25.952;2023-02-19T03:57:09;101116.63;;;11.18;53.16
46944;BME280;32678;43.852;25.952;2023-02-19T04:02:10;101124.75;;;11.09;53.79
46944;BME280;32678;43.852;25.952;2023-02-19T04:07:10;101126.47;;;11.10;53.95
46944;BME280;32678;43.852;25.952;2023-02-19T04:12:08;101140.44;;;10.81;54.84
46944;BME280;32678;43.852;25.952;2023-02-19T04:17:07;101137.53;;;10.60;55.77
46944;BME280;32678;43.852;25.952;2023-02-19T04:22:06;101108.63;;;10.61;55.35
46944;BME280;32678;43.852;25.952;2023-02-19T04:27:04;101126.53;;;10.78;55.07
46944;BME280;32678;43.852;25.952;2023-02-19T04:32:01;101137.97;;;10.75;55.29
46944;BME280;32678;43.852;25.952;2023-02-19T04:36:58;101134.19;;;10.85;54.87
46944;BME280;32678;43.852;25.952;2023-02-19T04:41:55;101134.91;;;10.91;54.74
46944;BME280;32678;43.852;25.952;2023-02-19T04:46:54;101144.75;;;10.84;55.09
46944;BME280;32678;43.852;25.952;2023-02-19T04:51:50;101151.13;;;10.74;55.12
46944;BME280;32678;43.852;25.952;2023-02-19T04:56:47;101149.44;;;10.71;55.46
46944;BME280;32678;43.852;25.952;2023-02-19T05:01:45;101156.41;;;10.72;55.35
46944;BME280;32678;43.852;25.952;2023-02-19T05:06:45;101163.09;;;10.52;56.68
46944;BME280;32678;43.852;25.952;2023-02-19T05:11:42;101178.00;;;10.50;57.13
46944;BME280;32678;43.852;25.952;2023-02-19T05:16:38;101174.41;;;10.20;58.37
46944;BME280;32678;43.852;25.952;2023-02-19T05:21:35;101181.41;;;10.19;58.76
46944;BME280;32678;43.852;25.952;2023-02-19T05:26:32;101183.91;;;10.24;58.68
46944;BME280;32678;43.852;25.952;2023-02-19T05:31:29;101188.75;;;10.02;59.03
46944;BME280;32678;43.852;25.952;2023-02-19T05:36:29;101213.41;;;10.32;58.20
46944;BME280;32678;43.852;25.952;2023-02-19T05:41:26;101227.59;;;10.23;58.27
46944;BME280;32678;43.852;25.952;2023-02-19T05:46:25;101235.53;;;10.20;58.60
46944;BME280;32678;43.852;25.952;2023-02-19T05:51:23;101242.22;;;10.32;58.42
46944;BME280;32678;43.852;25.952;2023-02-19T05:56:25;101251.53;;;10.45;58.08
46944;BME280;32678;43.852;25.952;2023-02-19T06:01:25;101257.09;;;10.31;58.74
46944;BME280;32678;43.852;25.952;2023-02-19T06:06:22;101271.66;;;10.06;59.93
46944;BME280;32678;43.852;25.952;2023-02-19T06:11:19;101269.72;;;10.16;60.15
46944;BME280;32678;43.852;25.952;2023-02-19T06:16:17;101261.34;;;9.97;60.79
46944;BME280;32678;43.852;25.952;2023-02-19T06:21:15;101285.50;;;10.11;60.84
46944;BME280;32678;43.852;25.952;2023-02-19T06:26:13;101289.28;;;9.98;61.38
46944;BME280;32678;43.852;25.952;2023-02-19T06:31:10;101296.16;;;10.02;61.60
46944;BME280;32678;43.852;25.952;2023-02-19T06:36:13;101291.56;;;10.12;61.51
46944;BME280;32678;43.852;25.952;2023-02-19T06:41:12;101280.31;;;10.08;61.75
46944;BME280;32678;43.852;25.952;2023-02-19T06:46:09;101293.97;;;10.24;61.79
46944;BME280;32678;43.852;25.952;2023-02-19T06:51:08;101298.94;;;10.36;61.90
46944;BME280;32678;43.852;25.952;2023-02-19T06:56:18;101307.97;;;10.60;61.61
46944;BME280;32678;43.852;25.952;2023-02-19T07:01:18;101318.03;;;10.76;61.99
46944;BME280;32678;43.852;25.952;2023-02-19T07:06:25;101309.91;;;10.87;62.10
46944;BME280;32678;43.852;25.952;2023-02-19T07:11:23;101307.06;;;11.28;61.17
46944;BME280;32678;43.852;25.952;2023-02-19T07:16:21;101302.44;;;11.38;61.44
46944;BME280;32678;43.852;25.952;2023-02-19T07:21:20;101298.72;;;11.45;61.79
46944;BME280;32678;43.852;25.952;2023-02-19T07:26:17;101279.69;;;11.37;62.53
46944;BME280;32678;43.852;25.952;2023-02-19T07:31:15;101282.09;;;11.45;62.81
46944;BME280;32678;43.852;25.952;2023-02-19T07:36:13;101268.63;;;11.57;62.40
46944;BME280;32678;43.852;25.952;2023-02-19T07:41:10;101277.16;;;11.65;62.32
46944;BME280;32678;43.852;25.952;2023-02-19T07:46:10;101265.31;;;11.81;62.00
46944;BME280;32678;43.852;25.952;2023-02-19T07:51:10;101274.41;;;11.99;61.46
46944;BME280;32678;43.852;25.952;2023-02-19T07:56:09;101269.09;;;12.28;60.58
46944;BME280;32678;43.852;25.952;2023-02-19T08:01:12;101277.47;;;12.41;60.30
46944;BME280;32678;43.852;25.952;2023-02-19T08:06:13;101273.72;;;12.48;60.53
46944;BME280;32678;43.852;25.952;2023-02-19T08:11:14;101268.13;;;12.58;59.26
46944;BME280;32678;43.852;25.952;2023-02-19T08:16:29;101268.00;;;12.62;59.13
46944;BME280;32678;43.852;25.952;2023-02-19T08:21:38;101261.44;;;12.75;58.93
46944;BME280;32678;43.852;25.952;2023-02-19T08:26:36;101254.13;;;12.83;59.23
46944;BME280;32678;43.852;25.952;2023-02-19T08:31:48;101258.53;;;13.07;58.60
46944;BME280;32678;43.852;25.952;2023-02-19T08:36:47;101262.31;;;13.25;58.13
46944;BME280;32678;43.852;25.952;2023-02-19T08:41:45;101279.34;;;13.39;56.84
46944;BME280;32678;43.852;25.952;2023-02-19T08:46:42;101252.06;;;13.42;56.41
46944;BME280;32678;43.852;25.952;2023-02-19T08:51:39;101248.94;;;13.54;56.33
46944;BME280;32678;43.852;25.952;2023-02-19T08:56:36;101257.31;;;13.65;55.88
46944;BME280;32678;43.852;25.952;2023-02-19T09:01:36;101263.31;;;13.69;55.50
46944;BME280;32678;43.852;25.952;2023-02-19T09:06:33;101259.41;;;13.79;55.43
46944;BME280;32678;43.852;25.952;2023-02-19T09:11:30;101247.97;;;13.80;55.32
46944;BME280;32678;43.852;25.952;2023-02-19T09:16:26;101253.78;;;13.88;55.49
46944;BME280;32678;43.852;25.952;2023-02-19T09:21:24;101242.72;;;14.02;55.03
46944;BME280;32678;43.852;25.952;2023-02-19T09:26:24;101225.56;;;14.13;54.74
46944;BME280;32678;43.852;25.952;2023-02-19T09:31:24;101219.88;;;14.46;53.42
46944;BME280;32678;43.852;25.952;2023-02-19T09:36:21;101234.94;;;14.64;52.38
46944;BME280;32678;43.852;25.952;2023-02-19T09:41:21;101227.06;;;14.62;51.92
46944;BME280;32678;43.852;25.952;2023-02-19T09:46:23;101221.47;;;14.70;51.40
46944;BME280;32678;43.852;25.952;2023-02-19T09:51:23;101206.81;;;14.83;51.08
46944;BME280;32678;43.852;25.952;2023-02-19T09:56:23;101210.97;;;14.89;50.61
46944;BME280;32678;43.852;25.952;2023-02-19T10:01:23;101187.72;;;14.97;50.18
46944;BME280;32678;43.852;25.952;2023-02-19T10:06:23;101194.06;;;15.13;49.95
46944;BME280;32678;43.852;25.952;2023-02-19T10:11:23;101192.28;;;15.13;49.80
46944;BME280;32678;43.852;25.952;2023-02-19T10:16:21;101182.72;;;15.30;48.62
46944;BME280;32678;43.852;25.952;2023-02-19T10:21:20;101179.78;;;15.36;48.14
46944;BME280;32678;43.852;25.952;2023-02-19T10:26:18;101184.19;;;15.55;48.25
46944;BME280;32678;43.852;25.952;2023-02-19T10:31:16;101170.63;;;15.82;47.52
46944;BME280;32678;43.852;25.952;2023-02-19T10:36:20;101173.91;;;16.04;46.84
46944;BME280;32678;43.852;25.952;2023-02-19T10:41:21;101129.56;;;15.92;46.58
46944;BME280;32678;43.852;25.952;2023-02-19T10:46:24;101137.63;;;16.08;46.36
46944;BME280;32678;43.852;25.952;2023-02-19T10:51:28;101138.31;;;16.28;45.80
46944;BME280;32678;43.852;25.952;2023-02-19T10:56:26;101115.66;;;16.23;46.02
46944;BME280;32678;43.852;25.952;2023-02-19T11:01:30;101107.56;;;16.43;45.55
46944;BME280;32678;43.852;25.952;2023-02-19T11:06:26;101090.44;;;16.33;45.22
46944;BME280;32678;43.852;25.952;2023-02-19T11:11:24;101090.00;;;16.25;45.00
46944;BME280;32678;43.852;25.952;2023-02-19T11:16:22;101099.66;;;16.26;45.07
46944;BME280;32678;43.852;25.952;2023-02-19T11:21:24;101097.13;;;16.23;45.60
46944;BME280;32678;43.852;25.952;2023-02-19T11:26:25;101092.84;;;16.37;45.72
46944;BME280;32678;43.852;25.952;2023-02-19T11:31:23;101078.06;;;16.33;45.44
46944;BME280;32678;43.852;25.952;2023-02-19T11:36:27;101082.59;;;16.31;45.49
46944;BME280;32678;43.852;25.952;2023-02-19T11:41:38;101066.81;;;16.30;44.95
46944;BME280;32678;43.852;25.952;2023-02-19T11:46:42;101087.91;;;16.31;45.27
46944;BME280;32678;43.852;25.952;2023-02-19T11:51:49;101097.13;;;16.23;45.47
46944;BME280;32678;43.852;25.952;2023-02-19T11:56:49;101077.16;;;16.17;45.52
46944;BME280;32678;43.852;25.952;2023-02-19T12:02:10;101059.72;;;16.13;45.67
46944;BME280;32678;43.852;25.952;2023-02-19T12:07:16;101065.50;;;16.21;45.39
46944;BME280;32678;43.852;25.952;2023-02-19T12:12:25;101057.75;;;16.34;45.27
46944;BME280;32678;43.852;25.952;2023-02-19T12:22:49;101051.59;;;16.51;44.31
46944;BME280;32678;43.852;25.952;2023-02-19T12:27:54;101046.72;;;16.60;43.62
46944;BME280;32678;43.852;25.952;2023-02-19T12:38:10;101026.75;;;16.53;44.46
46944;BME280;32678;43.852;25.952;2023-02-19T12:43:14;101026.59;;;16.56;44.59
46944;BME280;32678;43.852;25.952;2023-02-19T12:48:15;101028.72;;;16.50;44.14
46944;BME280;32678;43.852;25.952;2023-02-19T12:53:20;101027.91;;;16.47;44.52
46944;BME280;32678;43.852;25.952;2023-02-19T12:58:21;101014.44;;;16.69;44.52
46944;BME280;32678;43.852;25.952;2023-02-19T13:03:21;101020.59;;;16.70;44.58
46944;BME280;32678;43.852;25.952;2023-02-19T13:08:20;100999.81;;;16.62;44.35
46944;BME280;32678;43.852;25.952;2023-02-19T13:13:21;100992.50;;;16.50;44.67
46944;BME280;32678;43.852;25.952;2023-02-19T13:18:21;100990.53;;;16.71;44.21
46944;BME280;32678;43.852;25.952;2023-02-19T13:23:20;100992.66;;;16.64;44.64
46944;BME280;32678;43.852;25.952;2023-02-19T13:28:41;100964.34;;;16.49;45.35
46944;BME280;32678;43.852;25.952;2023-02-19T13:33:42;100961.00;;;16.45;45.72
46944;BME280;32678;43.852;25.952;2023-02-19T13:38:45;100980.69;;;16.73;45.55
46944;BME280;32678;43.852;25.952;2023-02-19T14:00:46;100963.63;;;16.78;45.11
46944;BME280;32678;43.852;25.952;2023-02-19T14:10:56;100962.09;;;16.74;45.27
46944;BME280;32678;43.852;25.952;2023-02-19T14:15:58;100968.41;;;16.72;45.63
46944;BME280;32678;43.852;25.952;2023-02-19T14:21:03;100960.03;;;16.79;45.37
46944;BME280;32678;43.852;25.952;2023-02-19T14:26:02;100938.06;;;16.62;45.64
46944;BME280;32678;43.852;25.952;2023-02-19T14:31:07;100945.47;;;16.55;46.29
46944;BME280;32678;43.852;25.952;2023-02-19T14:36:08;100947.03;;;16.59;46.36
46944;BME280;32678;43.852;25.952;2023-02-19T14:41:09;100948.66;;;16.62;46.46
46944;BME280;32678;43.852;25.952;2023-02-19T14:46:12;100937.47;;;16.72;46.37
46944;BME280;32678;43.852;25.952;2023-02-19T14:51:11;100930.66;;;16.68;46.51
46944;BME280;32678;43.852;25.952;2023-02-19T14:56:15;100918.06;;;16.40;47.02
46944;BME280;32678;43.852;25.952;2023-02-19T15:01:27;100945.78;;;16.66;46.60
46944;BME280;32678;43.852;25.952;2023-02-19T15:06:24;100944.31;;;16.61;46.83
46944;BME280;32678;43.852;25.952;2023-02-19T15:11:21;100946.63;;;16.67;46.96
46944;BME280;32678;43.852;25.952;2023-02-19T15:16:19;100942.84;;;16.55;47.32
46944;BME280;32678;43.852;25.952;2023-02-19T15:21:23;100947.84;;;16.44;47.52
46944;BME280;32678;43.852;25.952;2023-02-19T15:26:21;100941.50;;;16.31;47.73
46944;BME280;32678;43.852;25.952;2023-02-19T15:31:18;100935.38;;;16.30;47.92
46944;BME280;32678;43.852;25.952;2023-02-19T15:36:16;100925.88;;;16.26;48.02
46944;BME280;32678;43.852;25.952;2023-02-19T15:41:18;100941.22;;;16.20;48.24
46944;BME280;32678;43.852;25.952;2023-02-19T15:46:16;100934.06;;;16.22;48.42
46944;BME280;32678;43.852;25.952;2023-02-19T15:51:15;100943.78;;;16.21;48.57
46944;BME280;32678;43.852;25.952;2023-02-19T15:56:14;100948.31;;;16.19;48.75
46944;BME280;32678;43.852;25.952;2023-02-19T16:01:15;100959.91;;;16.17;48.91
46944;BME280;32678;43.852;25.952;2023-02-19T16:06:15;100968.78;;;16.16;49.06
46944;BME280;32678;43.852;25.952;2023-02-19T16:11:25;100980.47;;;16.12;49.29
46944;BME280;32678;43.852;25.952;2023-02-19T16:16:24;100973.06;;;16.01;49.66
46944;BME280;32678;43.852;25.952;2023-02-19T16:21:25;100969.47;;;16.19;49.12
46944;BME280;32678;43.852;25.952;2023-02-19T16:26:22;100967.47;;;16.07;49.55
46944;BME280;32678;43.852;25.952;2023-02-19T16:31:19;100959.31;;;16.12;49.08
46944;BME280;32678;43.852;25.952;2023-02-19T16:36:19;100986.59;;;15.95;49.46
46944;BME280;32678;43.852;25.952;2023-02-19T16:41:16;100968.56;;;15.86;49.83
46944;BME280;32678;43.852;25.952;2023-02-19T16:46:16;100967.03;;;15.82;49.97
46944;BME280;32678;43.852;25.952;2023-02-19T16:51:23;100971.38;;;15.83;49.69
46944;BME280;32678;43.852;25.952;2023-02-19T16:56:25;100981.72;;;15.87;49.50
46944;BME280;32678;43.852;25.952;2023-02-19T17:01:22;100985.38;;;15.68;50.43
46944;BME280;32678;43.852;25.952;2023-02-19T17:06:19;100980.88;;;15.87;49.59
46944;BME280;32678;43.852;25.952;2023-02-19T17:11:19;100977.06;;;15.58;50.44
46944;BME280;32678;43.852;25.952;2023-02-19T17:16:33;100971.06;;;15.54;50.32
46944;BME280;32678;43.852;25.952;2023-02-19T17:21:34;100962.56;;;15.48;50.72
46944;BME280;32678;43.852;25.952;2023-02-19T17:26:32;100967.13;;;15.63;50.42
46944;BME280;32678;43.852;25.952;2023-02-19T17:31:28;100960.19;;;15.60;50.62
46944;BME280;32678;43.852;25.952;2023-02-19T17:36:26;100965.28;;;15.46;50.96
46944;BME280;32678;43.852;25.952;2023-02-19T17:41:25;100961.91;;;15.62;50.52
46944;BME280;32678;43.852;25.952;2023-02-19T17:46:23;100958.91;;;15.33;51.31
46944;BME280;32678;43.852;25.952;2023-02-19T17:51:20;100963.31;;;15.50;50.72
46944;BME280;32678;43.852;25.952;2023-02-19T17:56:18;100961.91;;;15.62;50.39
46944;BME280;32678;43.852;25.952;2023-02-19T18:01:15;100965.22;;;15.48;50.64
46944;BME280;32678;43.852;25.952;2023-02-19T18:06:12;100959.28;;;15.43;50.61
46944;BME280;32678;43.852;25.952;2023-02-19T18:11:09;100977.19;;;15.55;50.27
46944;BME280;32678;43.852;25.952;2023-02-19T18:16:06;100966.03;;;15.31;50.83
46944;BME280;32678;43.852;25.952;2023-02-19T18:21:06;100972.22;;;15.30;50.88
46944;BME280;32678;43.852;25.952;2023-02-19T18:26:06;100956.03;;;14.83;51.67
46944;BME280;32678;43.852;25.952;2023-02-19T18:31:05;100970.88;;;14.86;52.09
46944;BME280;32678;43.852;25.952;2023-02-19T18:36:03;100983.03;;;14.90;52.13
46944;BME280;32678;43.852;25.952;2023-02-19T18:41:05;100975.94;;;15.09;51.82
46944;BME280;32678;43.852;25.952;2023-02-19T18:46:02;100976.03;;;14.89;52.23
46944;BME280;32678;43.852;25.952;2023-02-19T18:51:02;100986.38;;;14.93;52.24
46944;BME280;32678;43.852;25.952;2023-02-19T18:55:59;100982.81;;;14.94;52.26
46944;BME280;32678;43.852;25.952;2023-02-19T19:00:57;100993.00;;;14.83;52.82
46944;BME280;32678;43.852;25.952;2023-02-19T19:05:54;100983.78;;;14.92;52.68
46944;BME280;32678;43.852;25.952;2023-02-19T19:10:51;100977.59;;;14.93;52.52
46944;BME280;32678;43.852;25.952;2023-02-19T19:15:49;100986.81;;;14.84;52.94
46944;BME280;32678;43.852;25.952;2023-02-19T19:20:45;101000.69;;;14.69;53.21
46944;BME280;32678;43.852;25.952;2023-02-19T19:25:43;101005.56;;;14.78;52.90
46944;BME280;32678;43.852;25.952;2023-02-19T19:30:39;101007.50;;;14.74;53.01
46944;BME280;32678;43.852;25.952;2023-02-19T19:35:37;101010.13;;;14.74;52.97
46944;BME280;32678;43.852;25.952;2023-02-19T19:40:34;100985.44;;;14.76;52.76
46944;BME280;32678;43.852;25.952;2023-02-19T19:45:31;101010.78;;;14.80;52.50
46944;BME280;32678;43.852;25.952;2023-02-19T19:50:33;101003.13;;;14.73;52.48
46944;BME280;32678;43.852;25.952;2023-02-19T19:55:32;101004.00;;;14.74;52.49
46944;BME280;32678;43.852;25.952;2023-02-19T20:00:31;101014.66;;;14.71;52.45
46944;BME280;32678;43.852;25.952;2023-02-19T20:05:29;101022.56;;;14.52;53.02
46944;BME280;32678;43.852;25.952;2023-02-19T20:10:26;101042.69;;;14.35;53.78
46944;BME280;32678;43.852;25.952;2023-02-19T20:15:25;101044.00;;;14.24;53.94
46944;BME280;32678;43.852;25.952;2023-02-19T20:20:23;101038.78;;;14.23;54.33
46944;BME280;32678;43.852;25.952;2023-02-19T20:25:20;101045.38;;;14.33;53.72
46944;BME280;32678;43.852;25.952;2023-02-19T20:30:17;101043.66;;;14.32;53.59
46944;BME280;32678;43.852;25.952;2023-02-19T20:35:20;101041.38;;;14.24;53.77
46944;BME280;32678;43.852;25.952;2023-02-19T20:40:18;101040.06;;;14.14;53.89
46944;BME280;32678;43.852;25.952;2023-02-19T20:45:15;101047.31;;;14.09;53.90
46944;BME280;32678;43.852;25.952;2023-02-19T20:50:11;101048.09;;;14.31;53.31
46944;BME280;32678;43.852;25.952;2023-02-19T20:55:08;101042.53;;;14.17;53.35
46944;BME280;32678;43.852;25.952;2023-02-19T21:00:07;101032.69;;;14.02;53.64
46944;BME280;32678;43.852;25.952;2023-02-19T21:05:04;101056.84;;;13.92;54.14
46944;BME280;32678;43.852;25.952;2023-02-19T21:10:07;101057.25;;;13.82;54.06
46944;BME280;32678;43.852;25.952;2023-02-19T21:15:07;101052.38;;;13.94;53.66
46944;BME280;32678;43.852;25.952;2023-02-19T21:20:04;101063.09;;;13.89;53.74
46944;BME280;32678;43.852;25.952;2023-02-19T21:25:01;101077.22;;;14.08;53.28
46944;BME280;32678;43.852;25.952;2023-02-19T21:29:58;101085.66;;;13.96;53.84
46944;BME280;32678;43.852;25.952;2023-02-19T21:34:57;101091.22;;;14.10;53.40
46944;BME280;32678;43.852;25.952;2023-02-19T21:39:56;101087.56;;;13.93;53.91
46944;BME280;32678;43.852;25.952;2023-02-19T21:44:57;101086.25;;;13.82;54.23
46944;BME280;32678;43.852;25.952;2023-02-19T21:49:53;101076.69;;;13.58;54.62
46944;BME280;32678;43.852;25.952;2023-02-19T21:54:51;101087.44;;;13.74;54.27
46944;BME280;32678;43.852;25.952;2023-02-19T21:59:48;101070.34;;;13.84;53.91
46944;BME280;32678;43.852;25.952;2023-02-19T22:04:49;101096.78;;;13.61;54.45
46944;BME280;32678;43.852;25.952;2023-02-19T22:09:48;101093.94;;;13.65;54.37
46944;BME280;32678;43.852;25.952;2023-02-19T22:14:46;101095.72;;;13.65;54.51
46944;BME280;32678;43.852;25.952;2023-02-19T22:19:45;101100.69;;;13.51;55.03
46944;BME280;32678;43.852;25.952;2023-02-19T22:24:42;101102.38;;;13.53;54.98
46944;BME280;32678;43.852;25.952;2023-02-19T22:29:38;101101.09;;;13.40;55.49
46944;BME280;32678;43.852;25.952;2023-02-19T22:34:37;101105.69;;;13.35;55.69
46944;BME280;32678;43.852;25.952;2023-02-19T22:39:35;101117.00;;;13.15;56.52
46944;BME280;32678;43.852;25.952;2023-02-19T22:44:33;101101.78;;;13.23;56.19
46944;BME280;32678;43.852;25.952;2023-02-19T22:49:30;101114.84;;;13.01;57.24
46944;BME280;32678;43.852;25.952;2023-02-19T22:54:27;101106.53;;;13.14;56.98
46944;BME280;32678;43.852;25.952;2023-02-19T22:59:24;101112.84;;;13.08;56.91
46944;BME280;32678;43.852;25.952;2023-02-19T23:04:21;101109.69;;;13.23;56.07
46944;BME280;32678;43.852;25.952;2023-02-19T23:09:19;101079.53;;;13.07;55.87
46944;BME280;32678;43.852;25.952;2023-02-19T23:14:18;101096.97;;;13.10;56.04
46944;BME280;32678;43.852;25.952;2023-02-19T23:19:15;101102.31;;;13.08;56.23
46944;BME280;32678;43.852;25.952;2023-02-19T23:24:12;101095.63;;;12.99;56.35
46944;BME280;32678;43.852;25.952;2023-02-19T23:29:09;101094.66;;;13.02;56.45
46944;BME280;32678;43.852;25.952;2023-02-19T23:34:07;101103.97;;;12.87;56.92
46944;BME280;32678;43.852;25.952;2023-02-19T23:39:06;101103.75;;;12.70;57.56
46944;BME280;32678;43.852;25.952;2023-02-19T23:44:03;101105.84;;;12.61;58.09
46944;BME280;32678;43.852;25.952;2023-02-19T23:48:59;101112.50;;;12.46;58.81
46944;BME280;32678;43.852;25.952;2023-02-19T23:53:56;101105.47;;;12.22;59.67
46944;BME280;32678;43.852;25.952;2023-02-19T23:58:53;101120.06;;;12.04;60.94
